createdAt,value
2023-01-29T00:01:06.582Z,16.88
2023-01-29T00:07:08.602Z,16.27
2023-01-29T00:13:10.361Z,16.88
2023-01-29T00:19:12.120Z,16.60
2023-01-29T00:25:13.849Z,18.58
2023-01-29T00:31:18.735Z,18.02
2023-01-29T00:37:20.547Z,18.83
2023-01-29T00:43:40.954Z,19.45
2023-01-29T00:49:42.665Z,19.05
2023-01-29T00:55:45.035Z,17.80
2023-01-29T01:02:05.408Z,18.38
2023-01-29T01:08:27.134Z,17.88
2023-01-29T01:14:28.945Z,19.35
2023-01-29T01:20:32.923Z,20.13
2023-01-29T01:26:35.095Z,20.13
2023-01-29T01:32:36.961Z,19.20
2023-01-29T01:38:45.239Z,19.35
2023-01-29T01:45:04.220Z,18.55
2023-01-29T01:51:13.513Z,18.67
2023-01-29T01:57:24.800Z,19.38
2023-01-29T02:03:47.174Z,19.98
2023-01-29T02:09:53.229Z,20.70
2023-01-29T02:15:56.336Z,20.10
2023-01-29T02:22:10.633Z,19.40
2023-01-29T02:28:48.828Z,20.92
2023-01-29T02:35:31.974Z,21.88
2023-01-29T02:41:45.841Z,21.48
2023-01-29T02:47:59.131Z,22.98
2023-01-29T02:54:27.219Z,24.05
2023-01-29T03:00:41.342Z,22.50
2023-01-29T03:06:49.350Z,22.98
2023-01-29T03:13:06.316Z,23.75
2023-01-29T03:19:14.108Z,24.05
2023-01-29T03:25:36.316Z,22.20
2023-01-29T03:31:56.825Z,22.65
2023-01-29T03:37:59.403Z,20.80
2023-01-29T03:44:20.291Z,23.15
2023-01-29T03:50:47.082Z,23.98
2023-01-29T03:57:17.764Z,26.58
2023-01-29T04:03:33.257Z,25.42
2023-01-29T04:09:48.078Z,26.85
2023-01-29T04:15:55.980Z,25.15
2023-01-29T04:22:27.964Z,26.65
2023-01-29T04:28:50.283Z,27.92
2023-01-29T04:35:11.134Z,27.33
2023-01-29T04:41:32.450Z,28.55
2023-01-29T04:47:45.687Z,31.00
2023-01-29T04:54:10.925Z,30.65
2023-01-29T05:00:32.226Z,29.92
2023-01-29T05:06:35.736Z,30.17
2023-01-29T05:12:38.449Z,31.85
2023-01-29T05:18:41.059Z,30.65
2023-01-29T05:24:42.893Z,30.08
2023-01-29T05:30:50.159Z,29.83
2023-01-29T05:36:51.966Z,29.27
2023-01-29T05:42:53.771Z,27.02
2023-01-29T05:48:55.530Z,26.48
2023-01-29T05:54:57.366Z,26.80
2023-01-29T06:01:12.126Z,25.75
2023-01-29T06:07:13.935Z,24.85
2023-01-29T06:13:15.673Z,25.42
2023-01-29T06:19:18.202Z,24.63
2023-01-29T06:25:19.948Z,25.00
2023-01-29T06:31:37.432Z,23.48
2023-01-29T06:37:39.908Z,24.80
2023-01-29T06:43:44.679Z,22.98
2023-01-29T06:49:46.375Z,25.02
2023-01-29T06:55:52.855Z,22.63
2023-01-29T07:01:54.770Z,22.48
2023-01-29T07:07:57.175Z,23.85
2023-01-29T07:13:58.897Z,23.67
2023-01-29T07:20:00.733Z,22.90
2023-01-29T07:26:04.794Z,22.15
2023-01-29T07:32:07.912Z,22.55
2023-01-29T07:38:11.283Z,21.00
2023-01-29T07:44:13.112Z,23.35
2023-01-29T07:50:15.238Z,22.00
2023-01-29T07:56:17.332Z,22.83
2023-01-29T08:02:19.243Z,21.67
2023-01-29T08:08:21.029Z,21.90
2023-01-29T08:14:23.606Z,20.60
2023-01-29T08:20:25.805Z,21.60
2023-01-29T08:26:27.648Z,22.48
2023-01-29T08:32:29.383Z,20.98
2023-01-29T08:38:31.155Z,21.02
2023-01-29T08:44:32.878Z,21.50
2023-01-29T08:50:35.541Z,19.60
2023-01-29T08:56:37.298Z,19.48
2023-01-29T09:02:39.058Z,20.73
2023-01-29T09:08:41.532Z,21.02
2023-01-29T09:14:43.352Z,21.02
2023-01-29T09:20:45.507Z,20.83
2023-01-29T09:26:47.217Z,20.20
2023-01-29T09:32:53.542Z,20.40
2023-01-29T09:38:55.823Z,19.53
2023-01-29T09:45:24.731Z,20.10
2023-01-29T09:51:32.075Z,20.17
2023-01-29T10:04:06.556Z,20.02
2023-01-29T10:16:28.510Z,18.20
2023-01-29T10:22:45.555Z,17.38
2023-01-29T10:28:52.087Z,17.38
2023-01-29T10:35:02.636Z,17.50
2023-01-29T10:41:43.159Z,18.20
2023-01-29T10:48:21.265Z,16.63
2023-01-29T11:00:43.224Z,17.60
2023-01-29T11:06:45.254Z,17.80
2023-01-29T11:12:47.054Z,15.95
2023-01-29T11:18:53.683Z,18.40
2023-01-29T11:25:18.515Z,15.70
2023-01-29T11:31:38.627Z,15.32
2023-01-29T11:37:45.536Z,15.68
2023-01-29T11:43:47.433Z,14.73
2023-01-29T11:49:55.038Z,15.05
2023-01-29T11:55:56.906Z,13.93
2023-01-29T12:02:26.670Z,14.48
2023-01-29T12:08:37.021Z,14.13
2023-01-29T12:14:39.195Z,13.82
2023-01-29T12:20:56.106Z,13.55
2023-01-29T12:27:06.262Z,14.47
2023-01-29T12:33:36.699Z,15.02
2023-01-29T12:39:38.445Z,14.07
2023-01-29T12:45:42.904Z,14.52
2023-01-29T12:51:56.747Z,14.98
2023-01-29T12:58:12.667Z,12.90
2023-01-29T13:04:32.255Z,13.60
2023-01-29T13:10:38.559Z,13.25
2023-01-29T13:16:45.308Z,14.25
2023-01-29T13:22:48.545Z,13.77
2023-01-29T13:28:51.624Z,13.30
2023-01-29T13:34:57.164Z,12.45
2023-01-29T13:41:05.143Z,13.73
2023-01-29T13:47:20.252Z,13.02
2023-01-29T13:53:28.649Z,11.50
2023-01-29T13:59:55.172Z,12.73
2023-01-29T14:06:00.175Z,12.88
2023-01-29T14:12:02.937Z,12.82
2023-01-29T14:18:18.768Z,12.57
2023-01-29T14:24:24.691Z,12.40
2023-01-29T14:30:30.493Z,12.20
2023-01-29T14:36:41.959Z,12.00
2023-01-29T14:43:20.091Z,12.02
2023-01-29T14:49:51.208Z,11.68
2023-01-29T14:55:59.284Z,11.80
2023-01-29T15:02:15.484Z,12.52
2023-01-29T15:08:30.216Z,13.00
2023-01-29T15:14:40.676Z,12.73
2023-01-29T15:20:44.167Z,13.23
2023-01-29T15:26:45.968Z,12.43
2023-01-29T15:32:48.817Z,12.55
2023-01-29T15:39:14.168Z,12.05
2023-01-29T15:45:25.750Z,12.07
2023-01-29T15:51:28.847Z,11.90
2023-01-29T15:57:37.377Z,13.35
2023-01-29T16:03:39.502Z,13.40
2023-01-29T16:09:42.452Z,13.68
2023-01-29T16:15:59.147Z,13.75
2023-01-29T16:22:03.841Z,14.30
2023-01-29T16:28:07.593Z,13.80
2023-01-29T16:34:28.922Z,14.45
2023-01-29T16:40:33.879Z,14.00
2023-01-29T16:46:45.982Z,13.43
2023-01-29T16:53:01.072Z,15.10
2023-01-29T16:59:05.086Z,16.02
2023-01-29T17:05:10.006Z,15.15
2023-01-29T17:11:22.891Z,15.00
2023-01-29T17:17:31.973Z,15.50
2023-01-29T17:23:33.693Z,13.95
2023-01-29T17:29:35.454Z,14.50
2023-01-29T17:35:37.146Z,14.00
2023-01-29T17:41:39.623Z,15.15
2023-01-29T17:47:41.379Z,13.85
2023-01-29T17:53:46.180Z,13.80
2023-01-29T17:59:48.462Z,14.35
2023-01-29T18:05:50.419Z,17.42
2023-01-29T18:11:53.391Z,17.17
2023-01-29T18:17:55.264Z,18.17
2023-01-29T18:23:57.012Z,20.27
2023-01-29T18:29:58.735Z,21.98
2023-01-29T18:36:00.763Z,21.08
2023-01-29T18:42:02.493Z,23.13
2023-01-29T18:48:05.081Z,23.35
2023-01-29T18:54:06.933Z,24.60
2023-01-29T19:00:09.526Z,23.92
2023-01-29T19:06:11.987Z,23.27
2023-01-29T19:12:16.786Z,23.67
2023-01-29T19:24:27.691Z,25.17
2023-01-29T19:30:33.046Z,25.55
2023-01-29T19:36:36.296Z,25.10
2023-01-29T19:42:38.413Z,24.17
2023-01-29T19:48:40.633Z,24.30
2023-01-29T19:54:48.866Z,23.33
2023-01-29T20:00:59.594Z,23.38
2023-01-29T20:07:01.700Z,22.38
2023-01-29T20:13:07.864Z,21.63
2023-01-29T20:19:14.334Z,22.67
2023-01-29T20:25:20.165Z,21.52
2023-01-29T20:31:22.016Z,21.13
2023-01-29T20:37:24.131Z,19.35
2023-01-29T20:43:26.011Z,19.27
2023-01-29T20:49:28.558Z,18.52
2023-01-29T20:55:31.506Z,18.25
2023-01-29T21:01:33.292Z,17.38
2023-01-29T21:07:36.094Z,17.98
2023-01-29T21:13:38.143Z,16.70
2023-01-29T21:19:53.842Z,17.25
2023-01-29T21:26:08.725Z,17.45
2023-01-29T21:32:11.634Z,18.38
2023-01-29T21:38:13.379Z,18.27
2023-01-29T21:44:15.637Z,17.98
2023-01-29T21:50:17.769Z,18.80
2023-01-29T21:56:19.795Z,17.50
2023-01-29T22:02:22.782Z,17.77
2023-01-29T22:08:24.860Z,18.55
2023-01-29T22:14:26.629Z,18.70
2023-01-29T22:20:30.679Z,18.42
2023-01-29T22:26:32.574Z,18.98
2023-01-29T22:32:34.698Z,20.38
2023-01-29T22:38:36.531Z,19.05
2023-01-29T22:44:38.267Z,19.98
2023-01-29T22:50:40.390Z,19.38
2023-01-29T22:56:42.248Z,19.48
2023-01-29T23:02:45.963Z,19.10
2023-01-29T23:08:48.706Z,19.25
2023-01-29T23:14:50.446Z,19.30
2023-01-29T23:20:57.496Z,20.38
2023-01-29T23:27:14.350Z,20.52
2023-01-29T23:33:16.061Z,13.83
2023-01-29T23:39:17.869Z,19.60
2023-01-29T23:45:19.598Z,19.40
2023-01-29T23:51:21.342Z,19.77
2023-01-29T23:57:23.145Z,19.23
